Ana Sayfa
METAR-TAF:

METAR-TAF

Havaalanları :

Palacios Municipal Airport

Palacios, Teksas, Amerika Birleşik Devletleri

Enlem: 28-43-39N, Boylam: 096-15-03W, yükseklik: 5 m

Güncel hava durumu gözlemi

Rapor saat 20:53 UTC de 8 saat ve 38 dakika önce yapıldı.
Rüzgar güneydan 9 kt
Sıcaklık 38°C
Nem 51%
Basınç 1016 hPa
Görüş mesafesi: 16.1 km
2300 ft yükseklikte az bulutlu

METAR: KPSX 152053Z AUTO 18009KT 10SM FEW023 38/26 A3000 RMK AO2 SLP160 T03830261 $

Saat: 00:31 (05:31 UTC)


TAF: eksik

4.000'den fazla havaalanı için hava durumu gözlemleri ve tahminleri (METAR ve TAF raporları).

Kullanılabilir istasyonlar harita üzerinde sarı ve kırmızı noktalarla gösterilir.

İstasyonun adını görmek için fareyi noktanın üzerinde gezdirin.

Sonrasında hava gözlem ve tahminlerini görmek için tıklayın.

Haritayı değiştirmek için: yaklaştırmak için siyah artı işaretli yeşil düğmeye ve uzaklaştırmak için de eksi işaretli düğmeye hızla tıklayın; bitişik haritalar için yeşil okları kullanın.


METAR-TAF: